sensor_id;sensor_type;location;lat;lon;timestamp;temperature;humidity
7378;DHT22;3730;50.856;12.776;2022-12-07T00:01:37;3.70;99.90
7378;DHT22;3730;50.856;12.776;2022-12-07T00:04:09;3.60;99.90
7378;DHT22;3730;50.856;12.776;2022-12-07T00:06:43;3.50;99.90
7378;DHT22;3730;50.856;12.776;2022-12-07T00:09:15;1.90;99.90
7378;DHT22;3730;50.856;12.776;2022-12-07T00:11:41;2.00;99.90
7378;DHT22;3730;50.856;12.776;2022-12-07T00:14:11;1.90;99.90
7378;DHT22;3730;50.856;12.776;2022-12-07T00:16:37;2.90;99.90
7378;DHT22;3730;50.856;12.776;2022-12-07T00:19:03;3.50;99.90
7378;DHT22;3730;50.856;12.776;2022-12-07T00:21:32;2.00;99.90
7378;DHT22;3730;50.856;12.776;2022-12-07T00:23:58;1.90;99.90
7378;DHT22;3730;50.856;12.776;2022-12-07T00:26:32;2.00;99.90
7378;DHT22;3730;50.856;12.776;2022-12-07T00:29:00;3.00;99.90
7378;DHT22;3730;50.856;12.776;2022-12-07T00:31:28;2.00;99.90
7378;DHT22;3730;50.856;12.776;2022-12-07T00:33:55;4.10;99.90
7378;DHT22;3730;50.856;12.776;2022-12-07T00:36:22;5.40;99.90
7378;DHT22;3730;50.856;12.776;2022-12-07T00:38:49;2.10;99.90
7378;DHT22;3730;50.856;12.776;2022-12-07T00:41:20;2.10;99.90
7378;DHT22;3730;50.856;12.776;2022-12-07T00:43:47;2.10;99.90
7378;DHT22;3730;50.856;12.776;2022-12-07T00:46:14;2.10;99.90
7378;DHT22;3730;50.856;12.776;2022-12-07T00:48:40;3.00;99.90
7378;DHT22;3730;50.856;12.776;2022-12-07T00:51:06;2.30;99.90
7378;DHT22;3730;50.856;12.776;2022-12-07T00:53:34;5.40;99.90
7378;DHT22;3730;50.856;12.776;2022-12-07T00:56:05;2.50;99.90
7378;DHT22;3730;50.856;12.776;2022-12-07T00:58:31;2.10;99.90
7378;DHT22;3730;50.856;12.776;2022-12-07T01:01:03;2.20;99.90
7378;DHT22;3730;50.856;12.776;2022-12-07T01:03:30;2.10;99.90
7378;DHT22;3730;50.856;12.776;2022-12-07T01:05:56;2.10;99.90
7378;DHT22;3730;50.856;12.776;2022-12-07T01:08:23;2.00;99.90
7378;DHT22;3730;50.856;12.776;2022-12-07T01:10:56;2.10;99.90
7378;DHT22;3730;50.856;12.776;2022-12-07T01:13:22;2.00;99.90
7378;DHT22;3730;50.856;12.776;2022-12-07T01:15:48;5.50;99.90
7378;DHT22;3730;50.856;12.776;2022-12-07T01:18:13;1.70;99.90
7378;DHT22;3730;50.856;12.776;2022-12-07T01:20:39;3.30;99.90
7378;DHT22;3730;50.856;12.776;2022-12-07T01:23:04;2.10;99.90
7378;DHT22;3730;50.856;12.776;2022-12-07T01:25:30;5.50;99.90
7378;DHT22;3730;50.856;12.776;2022-12-07T01:27:56;2.50;99.90
7378;DHT22;3730;50.856;12.776;2022-12-07T01:30:24;3.30;99.90
7378;DHT22;3730;50.856;12.776;2022-12-07T01:32:50;2.20;99.90
7378;DHT22;3730;50.856;12.776;2022-12-07T01:35:15;2.20;99.90
7378;DHT22;3730;50.856;12.776;2022-12-07T01:37:41;2.00;99.90
7378;DHT22;3730;50.856;12.776;2022-12-07T01:40:07;3.30;99.90
7378;DHT22;3730;50.856;12.776;2022-12-07T01:42:34;1.90;99.90
7378;DHT22;3730;50.856;12.776;2022-12-07T01:47:55;3.50;99.90
7378;DHT22;3730;50.856;12.776;2022-12-07T01:50:25;2.60;99.90
7378;DHT22;3730;50.856;12.776;2022-12-07T01:52:53;1.80;99.90
7378;DHT22;3730;50.856;12.776;2022-12-07T01:55:19;1.80;99.90
7378;DHT22;3730;50.856;12.776;2022-12-07T01:57:49;4.20;99.90
7378;DHT22;3730;50.856;12.776;2022-12-07T02:00:19;2.30;99.90
7378;DHT22;3730;50.856;12.776;2022-12-07T02:02:59;1.60;99.90
7378;DHT22;3730;50.856;12.776;2022-12-07T02:05:28;1.70;99.90
7378;DHT22;3730;50.856;12.776;2022-12-07T02:07:55;3.90;99.90
7378;DHT22;3730;50.856;12.776;2022-12-07T02:10:25;4.30;99.90
7378;DHT22;3730;50.856;12.776;2022-12-07T02:12:55;1.70;99.90
7378;DHT22;3730;50.856;12.776;2022-12-07T02:15:27;4.20;99.90
7378;DHT22;3730;50.856;12.776;2022-12-07T02:18:16;4.50;99.90
7378;DHT22;3730;50.856;12.776;2022-12-07T21:50:24;2.80;28.50
7378;DHT22;3730;50.856;12.776;2022-12-07T21:52:49;2.70;22.80
7378;DHT22;3730;50.856;12.776;2022-12-07T21:55:15;3.00;25.20
7378;DHT22;3730;50.856;12.776;2022-12-07T21:57:41;2.70;25.50
7378;DHT22;3730;50.856;12.776;2022-12-07T22:00:07;3.40;26.80
7378;DHT22;3730;50.856;12.776;2022-12-07T22:02:33;2.70;26.50
7378;DHT22;3730;50.856;12.776;2022-12-07T22:04:58;2.70;29.40
7378;DHT22;3730;50.856;12.776;2022-12-07T22:07:24;4.40;27.40
7378;DHT22;3730;50.856;12.776;2022-12-07T22:09:49;4.00;31.20
7378;DHT22;3730;50.856;12.776;2022-12-07T22:12:15;3.70;28.20
7378;DHT22;3730;50.856;12.776;2022-12-07T22:14:40;4.10;25.50
7378;DHT22;3730;50.856;12.776;2022-12-07T22:17:25;2.70;24.20
7378;DHT22;3730;50.856;12.776;2022-12-07T22:19:52;2.70;21.00
7378;DHT22;3730;50.856;12.776;2022-12-07T22:22:18;5.00;21.00
7378;DHT22;3730;50.856;12.776;2022-12-07T22:24:43;2.80;17.60
7378;DHT22;3730;50.856;12.776;2022-12-07T22:27:09;4.50;16.90
7378;DHT22;3730;50.856;12.776;2022-12-07T22:29:34;3.30;9.40
7378;DHT22;3730;50.856;12.776;2022-12-07T22:32:00;2.80;5.20
7378;DHT22;3730;50.856;12.776;2022-12-07T22:34:26;5.70;8.50
7378;DHT22;3730;50.856;12.776;2022-12-07T22:36:51;2.80;8.40
7378;DHT22;3730;50.856;12.776;2022-12-07T22:39:17;3.50;7.30
7378;DHT22;3730;50.856;12.776;2022-12-07T22:41:43;4.80;2.10
7378;DHT22;3730;50.856;12.776;2022-12-07T22:44:09;2.80;7.90
7378;DHT22;3730;50.856;12.776;2022-12-07T22:46:35;5.30;5.20
7378;DHT22;3730;50.856;12.776;2022-12-07T22:49:01;4.20;3.50
7378;DHT22;3730;50.856;12.776;2022-12-07T22:51:29;5.00;1.00
7378;DHT22;3730;50.856;12.776;2022-12-07T22:53:56;4.10;1.00
7378;DHT22;3730;50.856;12.776;2022-12-07T22:56:24;2.90;1.00
7378;DHT22;3730;50.856;12.776;2022-12-07T22:58:49;4.60;1.00
7378;DHT22;3730;50.856;12.776;2022-12-07T23:01:17;3.40;1.00
7378;DHT22;3730;50.856;12.776;2022-12-07T23:03:43;4.30;1.00
7378;DHT22;3730;50.856;12.776;2022-12-07T23:06:14;3.50;1.00
7378;DHT22;3730;50.856;12.776;2022-12-07T23:08:40;3.00;1.00
7378;DHT22;3730;50.856;12.776;2022-12-07T23:11:10;6.10;1.50
7378;DHT22;3730;50.856;12.776;2022-12-07T23:13:56;2.90;1.00
7378;DHT22;3730;50.856;12.776;2022-12-07T23:16:22;4.20;1.40
7378;DHT22;3730;50.856;12.776;2022-12-07T23:18:47;3.10;1.00
7378;DHT22;3730;50.856;12.776;2022-12-07T23:21:13;3.70;1.00
7378;DHT22;3730;50.856;12.776;2022-12-07T23:23:39;3.60;3.50
7378;DHT22;3730;50.856;12.776;2022-12-07T23:26:07;4.90;4.70
7378;DHT22;3730;50.856;12.776;2022-12-07T23:28:33;3.80;1.80
7378;DHT22;3730;50.856;12.776;2022-12-07T23:31:04;3.00;5.40
7378;DHT22;3730;50.856;12.776;2022-12-07T23:33:30;3.00;5.10
7378;DHT22;3730;50.856;12.776;2022-12-07T23:35:56;4.10;9.10
7378;DHT22;3730;50.856;12.776;2022-12-07T23:38:30;3.60;9.60
7378;DHT22;3730;50.856;12.776;2022-12-07T23:40:56;3.00;9.90
7378;DHT22;3730;50.856;12.776;2022-12-07T23:43:21;3.10;10.80
7378;DHT22;3730;50.856;12.776;2022-12-07T23:45:47;2.90;12.80
7378;DHT22;3730;50.856;12.776;2022-12-07T23:48:13;2.90;10.80
7378;DHT22;3730;50.856;12.776;2022-12-07T23:50:39;3.70;12.50
7378;DHT22;3730;50.856;12.776;2022-12-07T23:53:04;2.90;10.60
7378;DHT22;3730;50.856;12.776;2022-12-07T23:55:30;2.90;9.40
7378;DHT22;3730;50.856;12.776;2022-12-07T23:57:55;3.40;10.40
